sensor_id;sensor_type;location;lat;lon;timestamp;temperature;humidity
1137;DHT22;557;48.466;7.950;2023-02-21T00:01:35;6.30;1.00
1137;DHT22;557;48.466;7.950;2023-02-21T00:04:39;6.30;1.00
1137;DHT22;557;48.466;7.950;2023-02-21T00:07:44;6.30;1.00
1137;DHT22;557;48.466;7.950;2023-02-21T00:10:49;6.30;1.00
1137;DHT22;557;48.466;7.950;2023-02-21T00:13:54;6.30;1.00
1137;DHT22;557;48.466;7.950;2023-02-21T00:17:00;6.10;1.00
1137;DHT22;557;48.466;7.950;2023-02-21T00:20:05;6.10;1.00
1137;DHT22;557;48.466;7.950;2023-02-21T00:23:10;6.00;1.00
1137;DHT22;557;48.466;7.950;2023-02-21T00:26:16;5.90;1.00
1137;DHT22;557;48.466;7.950;2023-02-21T00:29:21;5.90;1.00
1137;DHT22;557;48.466;7.950;2023-02-21T00:32:28;5.80;1.00
1137;DHT22;557;48.466;7.950;2023-02-21T00:35:33;5.70;1.00
1137;DHT22;557;48.466;7.950;2023-02-21T00:38:37;5.60;1.00
1137;DHT22;557;48.466;7.950;2023-02-21T00:41:42;5.50;1.00
1137;DHT22;557;48.466;7.950;2023-02-21T00:44:47;5.40;1.00
1137;DHT22;557;48.466;7.950;2023-02-21T00:47:53;5.30;1.00
1137;DHT22;557;48.466;7.950;2023-02-21T00:50:58;5.30;1.00
1137;DHT22;557;48.466;7.950;2023-02-21T00:54:03;5.30;1.00
1137;DHT22;557;48.466;7.950;2023-02-21T00:57:08;5.20;1.00
1137;DHT22;557;48.466;7.950;2023-02-21T01:00:16;5.20;1.00
1137;DHT22;557;48.466;7.950;2023-02-21T01:03:23;5.20;1.00
1137;DHT22;557;48.466;7.950;2023-02-21T01:06:28;5.20;1.00
1137;DHT22;557;48.466;7.950;2023-02-21T01:09:32;5.20;1.00
1137;DHT22;557;48.466;7.950;2023-02-21T01:12:37;5.10;1.00
1137;DHT22;557;48.466;7.950;2023-02-21T01:15:41;5.10;1.00
1137;DHT22;557;48.466;7.950;2023-02-21T01:18:48;5.10;1.00
1137;DHT22;557;48.466;7.950;2023-02-21T01:21:52;5.00;1.00
1137;DHT22;557;48.466;7.950;2023-02-21T01:24:57;5.00;4.00
1137;DHT22;557;48.466;7.950;2023-02-21T01:28:02;5.00;1.00
1137;DHT22;557;48.466;7.950;2023-02-21T01:31:07;5.00;1.00
1137;DHT22;557;48.466;7.950;2023-02-21T01:34:13;5.00;1.00
1137;DHT22;557;48.466;7.950;2023-02-21T01:37:17;4.90;1.00
1137;DHT22;557;48.466;7.950;2023-02-21T01:40:22;4.90;1.00
1137;DHT22;557;48.466;7.950;2023-02-21T01:43:27;4.90;1.00
1137;DHT22;557;48.466;7.950;2023-02-21T01:46:32;4.80;5.90
1137;DHT22;557;48.466;7.950;2023-02-21T01:49:40;4.70;17.20
1137;DHT22;557;48.466;7.950;2023-02-21T01:52:45;4.60;21.00
1137;DHT22;557;48.466;7.950;2023-02-21T01:55:51;4.70;44.30
1137;DHT22;557;48.466;7.950;2023-02-21T01:58:59;4.60;32.10
1137;DHT22;557;48.466;7.950;2023-02-21T02:02:10;4.40;4.40
1137;DHT22;557;48.466;7.950;2023-02-21T02:05:18;4.30;32.80
1137;DHT22;557;48.466;7.950;2023-02-21T02:08:27;4.20;20.60
1137;DHT22;557;48.466;7.950;2023-02-21T02:11:53;4.10;42.70
1137;DHT22;557;48.466;7.950;2023-02-21T02:15:17;4.10;56.70
1137;DHT22;557;48.466;7.950;2023-02-21T02:18:26;4.00;54.50
1137;DHT22;557;48.466;7.950;2023-02-21T02:25:12;4.00;97.40
1137;DHT22;557;48.466;7.950;2023-02-21T02:28:40;4.00;92.70
1137;DHT22;557;48.466;7.950;2023-02-21T02:31:39;3.80;94.70
1137;DHT22;557;48.466;7.950;2023-02-21T02:34:36;3.70;99.90
1137;DHT22;557;48.466;7.950;2023-02-21T02:37:31;3.60;99.90
1137;DHT22;557;48.466;7.950;2023-02-21T02:40:26;3.50;99.90
1137;DHT22;557;48.466;7.950;2023-02-21T02:43:19;3.50;99.90
1137;DHT22;557;48.466;7.950;2023-02-21T02:46:12;3.50;99.90
1137;DHT22;557;48.466;7.950;2023-02-21T02:49:04;3.40;99.90
1137;DHT22;557;48.466;7.950;2023-02-21T02:51:53;3.40;99.90
1137;DHT22;557;48.466;7.950;2023-02-21T02:54:41;3.40;99.90
1137;DHT22;557;48.466;7.950;2023-02-21T02:57:31;3.40;99.90
1137;DHT22;557;48.466;7.950;2023-02-21T03:00:25;3.40;99.90
1137;DHT22;557;48.466;7.950;2023-02-21T03:03:36;3.50;99.90
1137;DHT22;557;48.466;7.950;2023-02-21T03:06:33;3.60;99.90
1137;DHT22;557;48.466;7.950;2023-02-21T03:09:31;3.70;99.90
1137;DHT22;557;48.466;7.950;2023-02-21T03:12:28;3.80;99.90
1137;DHT22;557;48.466;7.950;2023-02-21T03:15:21;3.90;99.90
1137;DHT22;557;48.466;7.950;2023-02-21T03:18:17;3.90;99.90
1137;DHT22;557;48.466;7.950;2023-02-21T03:21:11;3.90;99.90
1137;DHT22;557;48.466;7.950;2023-02-21T03:24:01;3.80;99.90
1137;DHT22;557;48.466;7.950;2023-02-21T03:26:55;3.80;99.90
1137;DHT22;557;48.466;7.950;2023-02-21T03:29:44;3.80;99.90
1137;DHT22;557;48.466;7.950;2023-02-21T03:32:34;3.80;99.90
1137;DHT22;557;48.466;7.950;2023-02-21T03:35:21;3.90;99.90
1137;DHT22;557;48.466;7.950;2023-02-21T03:38:09;4.00;96.60
1137;DHT22;557;48.466;7.950;2023-02-21T03:40:57;4.00;90.80
1137;DHT22;557;48.466;7.950;2023-02-21T03:43:45;4.00;73.90
1137;DHT22;557;48.466;7.950;2023-02-21T03:46:33;4.00;63.30
1137;DHT22;557;48.466;7.950;2023-02-21T03:49:21;4.00;75.00
1137;DHT22;557;48.466;7.950;2023-02-21T03:52:09;3.90;73.80
1137;DHT22;557;48.466;7.950;2023-02-21T03:54:57;3.90;90.10
1137;DHT22;557;48.466;7.950;2023-02-21T03:57:45;3.90;95.30
1137;DHT22;557;48.466;7.950;2023-02-21T04:00:34;3.90;99.90
1137;DHT22;557;48.466;7.950;2023-02-21T04:03:21;4.00;97.00
1137;DHT22;557;48.466;7.950;2023-02-21T04:06:08;4.00;90.20
1137;DHT22;557;48.466;7.950;2023-02-21T04:08:55;3.90;90.20
1137;DHT22;557;48.466;7.950;2023-02-21T04:11:43;3.90;90.80
1137;DHT22;557;48.466;7.950;2023-02-21T04:14:30;3.90;99.40
1137;DHT22;557;48.466;7.950;2023-02-21T04:17:19;3.90;99.90
1137;DHT22;557;48.466;7.950;2023-02-21T04:20:07;3.90;99.90
1137;DHT22;557;48.466;7.950;2023-02-21T04:22:55;3.90;99.90
1137;DHT22;557;48.466;7.950;2023-02-21T04:25:42;3.90;99.90
1137;DHT22;557;48.466;7.950;2023-02-21T04:28:29;3.90;99.90
1137;DHT22;557;48.466;7.950;2023-02-21T04:31:17;3.90;99.90
1137;DHT22;557;48.466;7.950;2023-02-21T04:34:07;3.90;99.90
1137;DHT22;557;48.466;7.950;2023-02-21T04:36:54;3.90;97.50
1137;DHT22;557;48.466;7.950;2023-02-21T04:39:41;3.90;98.80
1137;DHT22;557;48.466;7.950;2023-02-21T04:42:29;3.80;99.90
1137;DHT22;557;48.466;7.950;2023-02-21T04:45:16;3.80;99.90
1137;DHT22;557;48.466;7.950;2023-02-21T04:48:04;3.70;99.90
1137;DHT22;557;48.466;7.950;2023-02-21T04:50:53;3.70;99.90
1137;DHT22;557;48.466;7.950;2023-02-21T04:53:41;3.70;99.90
1137;DHT22;557;48.466;7.950;2023-02-21T04:56:28;3.70;99.90
1137;DHT22;557;48.466;7.950;2023-02-21T04:59:17;3.60;89.50
1137;DHT22;557;48.466;7.950;2023-02-21T05:02:06;3.50;86.50
1137;DHT22;557;48.466;7.950;2023-02-21T05:04:53;3.40;76.50
1137;DHT22;557;48.466;7.950;2023-02-21T05:07:42;3.30;83.60
1137;DHT22;557;48.466;7.950;2023-02-21T05:10:30;3.20;94.50
1137;DHT22;557;48.466;7.950;2023-02-21T05:13:17;3.20;96.70
1137;DHT22;557;48.466;7.950;2023-02-21T05:16:05;3.10;99.90
1137;DHT22;557;48.466;7.950;2023-02-21T05:18:54;3.20;99.90
1137;DHT22;557;48.466;7.950;2023-02-21T05:21:41;3.20;99.90
1137;DHT22;557;48.466;7.950;2023-02-21T05:24:30;3.20;99.60
1137;DHT22;557;48.466;7.950;2023-02-21T05:27:18;3.30;99.90
1137;DHT22;557;48.466;7.950;2023-02-21T05:30:07;3.30;99.90
1137;DHT22;557;48.466;7.950;2023-02-21T05:32:55;3.30;99.90
1137;DHT22;557;48.466;7.950;2023-02-21T05:35:42;3.30;96.60
1137;DHT22;557;48.466;7.950;2023-02-21T05:38:31;3.30;96.60
1137;DHT22;557;48.466;7.950;2023-02-21T05:41:20;3.30;94.20
1137;DHT22;557;48.466;7.950;2023-02-21T05:44:08;3.30;92.90
1137;DHT22;557;48.466;7.950;2023-02-21T05:46:55;3.20;97.20
1137;DHT22;557;48.466;7.950;2023-02-21T05:49:43;3.10;99.90
1137;DHT22;557;48.466;7.950;2023-02-21T05:52:30;3.10;99.90
1137;DHT22;557;48.466;7.950;2023-02-21T05:55:17;3.20;99.90
1137;DHT22;557;48.466;7.950;2023-02-21T05:58:06;3.10;99.90
1137;DHT22;557;48.466;7.950;2023-02-21T06:00:54;3.00;99.90
1137;DHT22;557;48.466;7.950;2023-02-21T06:03:42;3.00;99.90
1137;DHT22;557;48.466;7.950;2023-02-21T06:06:30;3.00;99.90
1137;DHT22;557;48.466;7.950;2023-02-21T06:09:18;3.00;99.90
1137;DHT22;557;48.466;7.950;2023-02-21T06:12:05;3.00;99.90
1137;DHT22;557;48.466;7.950;2023-02-21T06:14:54;3.00;99.90
1137;DHT22;557;48.466;7.950;2023-02-21T06:17:42;3.00;99.90
1137;DHT22;557;48.466;7.950;2023-02-21T06:20:29;3.00;99.90
1137;DHT22;557;48.466;7.950;2023-02-21T06:23:17;3.00;99.90
1137;DHT22;557;48.466;7.950;2023-02-21T06:26:04;3.10;99.90
1137;DHT22;557;48.466;7.950;2023-02-21T06:28:57;3.10;99.90
1137;DHT22;557;48.466;7.950;2023-02-21T06:31:46;3.20;99.90
1137;DHT22;557;48.466;7.950;2023-02-21T06:34:34;3.20;99.90
1137;DHT22;557;48.466;7.950;2023-02-21T06:37:21;3.20;99.90
1137;DHT22;557;48.466;7.950;2023-02-21T06:40:09;3.20;99.90
1137;DHT22;557;48.466;7.950;2023-02-21T06:42:56;3.20;99.90
1137;DHT22;557;48.466;7.950;2023-02-21T06:45:44;3.30;99.90
1137;DHT22;557;48.466;7.950;2023-02-21T06:48:32;3.30;96.30
1137;DHT22;557;48.466;7.950;2023-02-21T06:51:20;3.30;87.10
1137;DHT22;557;48.466;7.950;2023-02-21T06:54:14;3.40;72.20
1137;DHT22;557;48.466;7.950;2023-02-21T06:57:02;3.40;75.80
1137;DHT22;557;48.466;7.950;2023-02-21T06:59:50;3.50;74.00
1137;DHT22;557;48.466;7.950;2023-02-21T07:02:37;3.50;80.60
1137;DHT22;557;48.466;7.950;2023-02-21T07:05:26;3.60;78.50
1137;DHT22;557;48.466;7.950;2023-02-21T07:08:14;3.60;80.60
1137;DHT22;557;48.466;7.950;2023-02-21T07:11:01;3.70;79.20
1137;DHT22;557;48.466;7.950;2023-02-21T07:13:52;3.70;86.00
1137;DHT22;557;48.466;7.950;2023-02-21T07:16:41;3.70;86.00
1137;DHT22;557;48.466;7.950;2023-02-21T07:19:28;3.90;75.00
1137;DHT22;557;48.466;7.950;2023-02-21T07:22:17;4.00;60.40
1137;DHT22;557;48.466;7.950;2023-02-21T07:25:13;4.10;45.40
1137;DHT22;557;48.466;7.950;2023-02-21T07:28:01;4.10;35.50
1137;DHT22;557;48.466;7.950;2023-02-21T07:30:49;4.20;36.90
1137;DHT22;557;48.466;7.950;2023-02-21T07:33:36;4.30;25.30
1137;DHT22;557;48.466;7.950;2023-02-21T07:36:24;4.40;14.80
1137;DHT22;557;48.466;7.950;2023-02-21T07:39:13;4.40;3.70
1137;DHT22;557;48.466;7.950;2023-02-21T07:42:00;4.60;2.60
1137;DHT22;557;48.466;7.950;2023-02-21T07:44:48;4.60;1.00
1137;DHT22;557;48.466;7.950;2023-02-21T07:47:35;4.70;1.00
1137;DHT22;557;48.466;7.950;2023-02-21T07:50:22;4.80;1.00
1137;DHT22;557;48.466;7.950;2023-02-21T07:53:11;5.00;1.00
1137;DHT22;557;48.466;7.950;2023-02-21T07:56:02;5.10;1.00
1137;DHT22;557;48.466;7.950;2023-02-21T07:58:50;5.20;1.00
1137;DHT22;557;48.466;7.950;2023-02-21T08:01:37;5.20;1.00
1137;DHT22;557;48.466;7.950;2023-02-21T08:04:24;5.30;1.00
1137;DHT22;557;48.466;7.950;2023-02-21T08:07:12;5.40;1.00
1137;DHT22;557;48.466;7.950;2023-02-21T08:09:59;5.50;1.00
1137;DHT22;557;48.466;7.950;2023-02-21T08:12:48;5.50;1.00
1137;DHT22;557;48.466;7.950;2023-02-21T08:15:35;5.60;1.00
1137;DHT22;557;48.466;7.950;2023-02-21T08:18:23;5.70;1.00
1137;DHT22;557;48.466;7.950;2023-02-21T08:21:10;5.80;1.00
1137;DHT22;557;48.466;7.950;2023-02-21T08:23:58;5.90;1.00
1137;DHT22;557;48.466;7.950;2023-02-21T08:26:45;6.00;1.00
1137;DHT22;557;48.466;7.950;2023-02-21T08:29:34;6.10;1.00
1137;DHT22;557;48.466;7.950;2023-02-21T08:32:22;6.20;1.00
1137;DHT22;557;48.466;7.950;2023-02-21T08:35:12;6.20;1.00
1137;DHT22;557;48.466;7.950;2023-02-21T08:38:00;6.20;1.00
1137;DHT22;557;48.466;7.950;2023-02-21T08:40:48;6.20;99.90
1137;DHT22;557;48.466;7.950;2023-02-21T08:43:37;6.20;99.90
1137;DHT22;557;48.466;7.950;2023-02-21T08:46:26;6.10;99.90
1137;DHT22;557;48.466;7.950;2023-02-21T08:49:15;6.10;99.90
1137;DHT22;557;48.466;7.950;2023-02-21T08:52:03;6.20;99.90
1137;DHT22;557;48.466;7.950;2023-02-21T08:54:50;6.30;99.90
1137;DHT22;557;48.466;7.950;2023-02-21T08:57:38;6.30;99.90
1137;DHT22;557;48.466;7.950;2023-02-21T09:00:26;6.50;1.00
1137;DHT22;557;48.466;7.950;2023-02-21T09:03:15;6.70;1.00
1137;DHT22;557;48.466;7.950;2023-02-21T09:06:02;7.00;1.00
1137;DHT22;557;48.466;7.950;2023-02-21T09:08:50;7.20;40.80
1137;DHT22;557;48.466;7.950;2023-02-21T09:11:37;7.30;99.90
1137;DHT22;557;48.466;7.950;2023-02-21T09:14:25;7.50;99.90
1137;DHT22;557;48.466;7.950;2023-02-21T09:17:13;7.70;99.90
1137;DHT22;557;48.466;7.950;2023-02-21T09:20:04;7.80;1.00
1137;DHT22;557;48.466;7.950;2023-02-21T09:22:52;8.00;1.00
1137;DHT22;557;48.466;7.950;2023-02-21T09:25:40;8.20;99.90
1137;DHT22;557;48.466;7.950;2023-02-21T09:28:27;8.30;1.00
1137;DHT22;557;48.466;7.950;2023-02-21T09:31:16;8.50;99.90
1137;DHT22;557;48.466;7.950;2023-02-21T09:34:04;8.70;99.90
1137;DHT22;557;48.466;7.950;2023-02-21T09:36:53;8.70;99.90
1137;DHT22;557;48.466;7.950;2023-02-21T09:39:40;9.00;99.90
1137;DHT22;557;48.466;7.950;2023-02-21T09:42:29;9.10;99.90
1137;DHT22;557;48.466;7.950;2023-02-21T09:45:18;9.30;99.90
1137;DHT22;557;48.466;7.950;2023-02-21T09:48:10;9.50;1.00
1137;DHT22;557;48.466;7.950;2023-02-21T09:51:03;9.70;14.90
1137;DHT22;557;48.466;7.950;2023-02-21T09:53:55;9.90;1.00
1137;DHT22;557;48.466;7.950;2023-02-21T09:56:43;10.00;1.00
1137;DHT22;557;48.466;7.950;2023-02-21T09:59:31;10.30;1.00
1137;DHT22;557;48.466;7.950;2023-02-21T10:02:29;10.50;1.00
1137;DHT22;557;48.466;7.950;2023-02-21T10:05:23;10.70;1.00
1137;DHT22;557;48.466;7.950;2023-02-21T10:08:21;10.70;1.00
1137;DHT22;557;48.466;7.950;2023-02-21T10:11:24;11.00;99.90
1137;DHT22;557;48.466;7.950;2023-02-21T10:14:22;11.20;99.90
1137;DHT22;557;48.466;7.950;2023-02-21T10:17:17;11.60;99.90
1137;DHT22;557;48.466;7.950;2023-02-21T10:20:12;11.70;99.90
1137;DHT22;557;48.466;7.950;2023-02-21T10:23:01;11.90;99.90
1137;DHT22;557;48.466;7.950;2023-02-21T10:25:52;12.10;99.90
1137;DHT22;557;48.466;7.950;2023-02-21T10:28:43;12.30;99.90
1137;DHT22;557;48.466;7.950;2023-02-21T10:31:33;12.60;99.90
1137;DHT22;557;48.466;7.950;2023-02-21T10:34:24;13.00;99.90
1137;DHT22;557;48.466;7.950;2023-02-21T10:37:27;13.20;99.90
1137;DHT22;557;48.466;7.950;2023-02-21T10:40:28;13.50;99.90
1137;DHT22;557;48.466;7.950;2023-02-21T10:43:17;13.50;99.90
1137;DHT22;557;48.466;7.950;2023-02-21T10:46:11;13.30;99.90
1137;DHT22;557;48.466;7.950;2023-02-21T10:49:20;13.40;99.90
1137;DHT22;557;48.466;7.950;2023-02-21T10:52:10;13.70;99.90
1137;DHT22;557;48.466;7.950;2023-02-21T10:55:03;13.90;99.90
1137;DHT22;557;48.466;7.950;2023-02-21T10:57:56;13.90;99.90
1137;DHT22;557;48.466;7.950;2023-02-21T11:00:44;14.30;99.90
1137;DHT22;557;48.466;7.950;2023-02-21T11:03:34;14.40;99.90
1137;DHT22;557;48.466;7.950;2023-02-21T11:06:31;14.50;99.90
1137;DHT22;557;48.466;7.950;2023-02-21T11:09:37;14.70;99.90
1137;DHT22;557;48.466;7.950;2023-02-21T11:12:26;14.90;99.90
1137;DHT22;557;48.466;7.950;2023-02-21T11:15:17;15.10;99.90
1137;DHT22;557;48.466;7.950;2023-02-21T11:18:12;15.60;99.90
1137;DHT22;557;48.466;7.950;2023-02-21T11:21:10;15.50;99.90
1137;DHT22;557;48.466;7.950;2023-02-21T11:24:00;15.60;99.90
1137;DHT22;557;48.466;7.950;2023-02-21T11:26:51;15.80;99.90
1137;DHT22;557;48.466;7.950;2023-02-21T11:29:41;16.00;99.90
1137;DHT22;557;48.466;7.950;2023-02-21T11:32:32;15.80;99.90
1137;DHT22;557;48.466;7.950;2023-02-21T11:35:24;15.70;99.90
1137;DHT22;557;48.466;7.950;2023-02-21T11:38:32;15.70;99.90
1137;DHT22;557;48.466;7.950;2023-02-21T11:41:22;15.60;99.90
1137;DHT22;557;48.466;7.950;2023-02-21T11:44:24;15.80;99.90
1137;DHT22;557;48.466;7.950;2023-02-21T11:47:13;16.10;99.90
1137;DHT22;557;48.466;7.950;2023-02-21T11:50:06;16.20;99.90
1137;DHT22;557;48.466;7.950;2023-02-21T11:53:00;16.50;99.90
1137;DHT22;557;48.466;7.950;2023-02-21T11:55:56;16.50;99.90
1137;DHT22;557;48.466;7.950;2023-02-21T11:58:55;16.50;99.90
1137;DHT22;557;48.466;7.950;2023-02-21T12:01:49;16.60;99.90
1137;DHT22;557;48.466;7.950;2023-02-21T12:04:55;17.00;99.90
1137;DHT22;557;48.466;7.950;2023-02-21T12:08:03;16.80;99.90
1137;DHT22;557;48.466;7.950;2023-02-21T12:11:08;16.80;99.90
1137;DHT22;557;48.466;7.950;2023-02-21T12:14:08;17.20;99.90
1137;DHT22;557;48.466;7.950;2023-02-21T12:17:10;17.40;99.90
1137;DHT22;557;48.466;7.950;2023-02-21T12:23:26;17.60;99.90
1137;DHT22;557;48.466;7.950;2023-02-21T12:26:30;17.70;99.90
1137;DHT22;557;48.466;7.950;2023-02-21T12:29:38;18.10;99.90
1137;DHT22;557;48.466;7.950;2023-02-21T12:32:49;18.70;99.90
1137;DHT22;557;48.466;7.950;2023-02-21T12:35:57;18.10;99.90
1137;DHT22;557;48.466;7.950;2023-02-21T12:39:03;18.10;99.40
1137;DHT22;557;48.466;7.950;2023-02-21T12:42:16;18.20;98.20
1137;DHT22;557;48.466;7.950;2023-02-21T12:45:21;18.60;99.20
1137;DHT22;557;48.466;7.950;2023-02-21T12:48:12;18.60;99.10
1137;DHT22;557;48.466;7.950;2023-02-21T12:51:05;19.10;97.90
1137;DHT22;557;48.466;7.950;2023-02-21T12:53:57;19.50;96.80
1137;DHT22;557;48.466;7.950;2023-02-21T12:56:50;19.30;93.90
1137;DHT22;557;48.466;7.950;2023-02-21T12:59:51;19.20;91.00
1137;DHT22;557;48.466;7.950;2023-02-21T13:02:49;19.30;89.90
1137;DHT22;557;48.466;7.950;2023-02-21T13:05:39;19.60;86.70
1137;DHT22;557;48.466;7.950;2023-02-21T13:08:30;19.10;81.10
1137;DHT22;557;48.466;7.950;2023-02-21T13:11:24;18.80;77.70
1137;DHT22;557;48.466;7.950;2023-02-21T13:14:16;19.20;77.40
1137;DHT22;557;48.466;7.950;2023-02-21T13:17:09;19.50;76.80
1137;DHT22;557;48.466;7.950;2023-02-21T13:20:00;20.00;74.60
1137;DHT22;557;48.466;7.950;2023-02-21T13:26:47;20.10;71.80
1137;DHT22;557;48.466;7.950;2023-02-21T13:29:37;20.60;74.50
1137;DHT22;557;48.466;7.950;2023-02-21T13:32:36;21.10;68.40
1137;DHT22;557;48.466;7.950;2023-02-21T13:35:28;21.20;69.60
1137;DHT22;557;48.466;7.950;2023-02-21T13:38:17;21.10;65.00
1137;DHT22;557;48.466;7.950;2023-02-21T13:41:08;20.40;58.90
1137;DHT22;557;48.466;7.950;2023-02-21T13:44:05;20.50;56.30
1137;DHT22;557;48.466;7.950;2023-02-21T13:50:40;21.20;54.90
1137;DHT22;557;48.466;7.950;2023-02-21T13:53:34;21.80;61.00
1137;DHT22;557;48.466;7.950;2023-02-21T13:56:41;23.10;66.40
1137;DHT22;557;48.466;7.950;2023-02-21T13:59:35;23.40;58.10
1137;DHT22;557;48.466;7.950;2023-02-21T14:02:26;23.90;57.90
1137;DHT22;557;48.466;7.950;2023-02-21T14:05:16;24.50;57.40
1137;DHT22;557;48.466;7.950;2023-02-21T14:08:05;24.80;56.00
1137;DHT22;557;48.466;7.950;2023-02-21T14:10:56;25.30;53.50
1137;DHT22;557;48.466;7.950;2023-02-21T14:13:46;25.80;50.70
1137;DHT22;557;48.466;7.950;2023-02-21T14:16:47;26.00;46.30
1137;DHT22;557;48.466;7.950;2023-02-21T14:19:39;26.10;43.30
1137;DHT22;557;48.466;7.950;2023-02-21T14:22:29;26.20;39.40
1137;DHT22;557;48.466;7.950;2023-02-21T14:25:21;25.90;34.20
1137;DHT22;557;48.466;7.950;2023-02-21T14:31:54;26.20;31.80
1137;DHT22;557;48.466;7.950;2023-02-21T14:34:51;26.20;31.00
1137;DHT22;557;48.466;7.950;2023-02-21T14:37:41;26.00;27.90
1137;DHT22;557;48.466;7.950;2023-02-21T14:40:38;26.00;25.50
1137;DHT22;557;48.466;7.950;2023-02-21T14:43:38;25.80;24.00
1137;DHT22;557;48.466;7.950;2023-02-21T14:46:54;25.30;19.20
1137;DHT22;557;48.466;7.950;2023-02-21T14:50:09;25.20;18.10
1137;DHT22;557;48.466;7.950;2023-02-21T14:56:48;24.70;13.60
1137;DHT22;557;48.466;7.950;2023-02-21T15:00:07;24.10;11.60
1137;DHT22;557;48.466;7.950;2023-02-21T15:03:11;24.00;11.70
1137;DHT22;557;48.466;7.950;2023-02-21T15:06:03;23.80;10.40
1137;DHT22;557;48.466;7.950;2023-02-21T15:08:52;23.60;10.80
1137;DHT22;557;48.466;7.950;2023-02-21T15:11:40;23.70;9.30
1137;DHT22;557;48.466;7.950;2023-02-21T15:14:29;23.40;7.00
1137;DHT22;557;48.466;7.950;2023-02-21T15:17:21;23.10;6.20
1137;DHT22;557;48.466;7.950;2023-02-21T15:20:16;22.80;4.00
1137;DHT22;557;48.466;7.950;2023-02-21T15:23:21;22.10;1.30
1137;DHT22;557;48.466;7.950;2023-02-21T15:26:17;21.50;1.00
1137;DHT22;557;48.466;7.950;2023-02-21T15:29:08;21.20;1.00
1137;DHT22;557;48.466;7.950;2023-02-21T15:31:56;20.90;1.00
1137;DHT22;557;48.466;7.950;2023-02-21T15:34:45;20.50;1.00
1137;DHT22;557;48.466;7.950;2023-02-21T15:37:37;20.00;1.00
1137;DHT22;557;48.466;7.950;2023-02-21T15:40:25;19.40;1.00
1137;DHT22;557;48.466;7.950;2023-02-21T15:43:23;19.00;1.00
1137;DHT22;557;48.466;7.950;2023-02-21T15:46:15;18.60;1.00
1137;DHT22;557;48.466;7.950;2023-02-21T15:49:04;18.20;1.00
1137;DHT22;557;48.466;7.950;2023-02-21T15:51:52;17.80;1.00
1137;DHT22;557;48.466;7.950;2023-02-21T15:54:41;17.50;1.00
1137;DHT22;557;48.466;7.950;2023-02-21T15:57:28;17.30;1.00
1137;DHT22;557;48.466;7.950;2023-02-21T16:00:20;17.10;1.00
1137;DHT22;557;48.466;7.950;2023-02-21T16:03:32;16.90;1.00
1137;DHT22;557;48.466;7.950;2023-02-21T16:06:22;16.70;1.00
1137;DHT22;557;48.466;7.950;2023-02-21T16:09:29;16.50;1.00
1137;DHT22;557;48.466;7.950;2023-02-21T16:12:36;16.30;1.00
1137;DHT22;557;48.466;7.950;2023-02-21T16:15:26;16.10;1.00
1137;DHT22;557;48.466;7.950;2023-02-21T16:18:17;16.10;1.00
1137;DHT22;557;48.466;7.950;2023-02-21T16:21:06;15.90;1.00
1137;DHT22;557;48.466;7.950;2023-02-21T16:23:54;15.80;1.60
1137;DHT22;557;48.466;7.950;2023-02-21T16:27:02;15.60;3.30
1137;DHT22;557;48.466;7.950;2023-02-21T16:29:50;15.50;8.80
1137;DHT22;557;48.466;7.950;2023-02-21T16:32:38;15.30;11.20
1137;DHT22;557;48.466;7.950;2023-02-21T16:35:26;15.20;14.00
1137;DHT22;557;48.466;7.950;2023-02-21T16:38:18;15.00;16.50
1137;DHT22;557;48.466;7.950;2023-02-21T16:41:10;14.90;18.20
1137;DHT22;557;48.466;7.950;2023-02-21T16:43:58;14.80;22.70
1137;DHT22;557;48.466;7.950;2023-02-21T16:46:49;14.70;25.00
1137;DHT22;557;48.466;7.950;2023-02-21T16:49:37;14.50;27.30
1137;DHT22;557;48.466;7.950;2023-02-21T16:52:24;14.50;30.30
1137;DHT22;557;48.466;7.950;2023-02-21T16:55:15;14.30;35.80
1137;DHT22;557;48.466;7.950;2023-02-21T16:58:06;14.10;42.60
1137;DHT22;557;48.466;7.950;2023-02-21T17:00:55;14.00;48.00
1137;DHT22;557;48.466;7.950;2023-02-21T17:03:44;13.90;58.40
1137;DHT22;557;48.466;7.950;2023-02-21T17:06:33;13.70;63.30
1137;DHT22;557;48.466;7.950;2023-02-21T17:09:23;13.50;82.50
1137;DHT22;557;48.466;7.950;2023-02-21T17:12:11;13.30;94.80
1137;DHT22;557;48.466;7.950;2023-02-21T17:14:59;13.20;99.90
1137;DHT22;557;48.466;7.950;2023-02-21T17:17:46;13.00;99.90
1137;DHT22;557;48.466;7.950;2023-02-21T17:20:35;12.90;99.90
1137;DHT22;557;48.466;7.950;2023-02-21T17:23:22;12.70;99.90
1137;DHT22;557;48.466;7.950;2023-02-21T17:26:10;12.40;99.90
1137;DHT22;557;48.466;7.950;2023-02-21T17:28:58;12.30;99.90
1137;DHT22;557;48.466;7.950;2023-02-21T17:31:45;12.30;99.90
1137;DHT22;557;48.466;7.950;2023-02-21T17:34:33;12.20;99.90
1137;DHT22;557;48.466;7.950;2023-02-21T17:37:23;12.00;99.90
1137;DHT22;557;48.466;7.950;2023-02-21T17:40:10;11.80;99.90
1137;DHT22;557;48.466;7.950;2023-02-21T17:42:57;11.60;99.90
1137;DHT22;557;48.466;7.950;2023-02-21T17:45:45;11.40;99.90
1137;DHT22;557;48.466;7.950;2023-02-21T17:48:32;11.30;99.90
1137;DHT22;557;48.466;7.950;2023-02-21T17:51:21;11.20;99.90
1137;DHT22;557;48.466;7.950;2023-02-21T17:54:11;11.00;1.00
1137;DHT22;557;48.466;7.950;2023-02-21T17:56:59;10.80;1.00
1137;DHT22;557;48.466;7.950;2023-02-21T17:59:47;10.70;1.00
1137;DHT22;557;48.466;7.950;2023-02-21T18:02:34;10.60;1.00
1137;DHT22;557;48.466;7.950;2023-02-21T18:05:22;10.50;99.90
1137;DHT22;557;48.466;7.950;2023-02-21T18:08:09;10.40;99.90
1137;DHT22;557;48.466;7.950;2023-02-21T18:10:58;10.20;99.90
1137;DHT22;557;48.466;7.950;2023-02-21T18:13:45;10.10;1.00
1137;DHT22;557;48.466;7.950;2023-02-21T18:16:33;10.00;1.00
1137;DHT22;557;48.466;7.950;2023-02-21T18:19:20;9.90;1.00
1137;DHT22;557;48.466;7.950;2023-02-21T18:22:07;9.80;1.00
1137;DHT22;557;48.466;7.950;2023-02-21T18:24:55;9.60;99.90
1137;DHT22;557;48.466;7.950;2023-02-21T18:27:44;9.50;1.00
1137;DHT22;557;48.466;7.950;2023-02-21T18:30:31;9.40;99.90
1137;DHT22;557;48.466;7.950;2023-02-21T18:33:21;9.30;99.90
1137;DHT22;557;48.466;7.950;2023-02-21T18:36:09;9.20;1.00
1137;DHT22;557;48.466;7.950;2023-02-21T18:38:56;9.00;99.90
1137;DHT22;557;48.466;7.950;2023-02-21T18:41:45;8.90;1.00
1137;DHT22;557;48.466;7.950;2023-02-21T18:44:33;8.80;99.90
1137;DHT22;557;48.466;7.950;2023-02-21T18:47:21;8.70;1.00
1137;DHT22;557;48.466;7.950;2023-02-21T18:50:10;8.60;23.30
1137;DHT22;557;48.466;7.950;2023-02-21T18:52:58;8.60;1.00
1137;DHT22;557;48.466;7.950;2023-02-21T18:55:47;8.60;1.00
1137;DHT22;557;48.466;7.950;2023-02-21T18:58:34;8.60;1.00
1137;DHT22;557;48.466;7.950;2023-02-21T19:01:23;8.50;1.00
1137;DHT22;557;48.466;7.950;2023-02-21T19:04:11;8.40;1.00
1137;DHT22;557;48.466;7.950;2023-02-21T19:07:04;8.30;99.90
1137;DHT22;557;48.466;7.950;2023-02-21T19:09:52;8.20;99.90
1137;DHT22;557;48.466;7.950;2023-02-21T19:12:40;8.10;99.90
1137;DHT22;557;48.466;7.950;2023-02-21T19:15:28;8.00;99.90
1137;DHT22;557;48.466;7.950;2023-02-21T19:18:17;7.90;99.90
1137;DHT22;557;48.466;7.950;2023-02-21T19:21:05;7.80;99.90
1137;DHT22;557;48.466;7.950;2023-02-21T19:23:57;7.80;99.90
1137;DHT22;557;48.466;7.950;2023-02-21T19:26:45;7.70;99.90
1137;DHT22;557;48.466;7.950;2023-02-21T19:29:33;7.70;99.90
1137;DHT22;557;48.466;7.950;2023-02-21T19:32:20;7.60;99.90
1137;DHT22;557;48.466;7.950;2023-02-21T19:35:09;7.50;99.90
1137;DHT22;557;48.466;7.950;2023-02-21T19:37:57;7.50;99.90
1137;DHT22;557;48.466;7.950;2023-02-21T19:40:44;7.40;99.90
1137;DHT22;557;48.466;7.950;2023-02-21T19:43:32;7.30;1.00
1137;DHT22;557;48.466;7.950;2023-02-21T19:46:21;7.20;1.00